sensor_id;sensor_type;location;lat;lon;timestamp;pressure;altitude;pressure_sealevel;temperature;humidity
9277;BME280;4676;42.678;23.244;2024-03-22T00:02:12;94145.13;;;6.30;60.12
9277;BME280;4676;42.678;23.244;2024-03-22T00:04:39;94151.03;;;6.29;63.08
9277;BME280;4676;42.678;23.244;2024-03-22T00:07:04;94145.59;;;6.11;64.07
9277;BME280;4676;42.678;23.244;2024-03-22T00:09:31;94137.88;;;6.18;64.19
9277;BME280;4676;42.678;23.244;2024-03-22T00:11:57;94145.03;;;6.35;62.64
9277;BME280;4676;42.678;23.244;2024-03-22T00:14:24;94145.75;;;6.40;62.52
9277;BME280;4676;42.678;23.244;2024-03-22T00:16:51;94143.53;;;6.26;64.67
9277;BME280;4676;42.678;23.244;2024-03-22T00:19:18;94136.88;;;6.25;63.38
9277;BME280;4676;42.678;23.244;2024-03-22T00:21:44;94144.59;;;6.18;66.07
9277;BME280;4676;42.678;23.244;2024-03-22T00:24:10;94138.28;;;6.00;67.89
9277;BME280;4676;42.678;23.244;2024-03-22T00:26:36;94144.22;;;5.96;72.66
9277;BME280;4676;42.678;23.244;2024-03-22T00:29:03;94141.03;;;5.88;73.40
9277;BME280;4676;42.678;23.244;2024-03-22T00:31:28;94134.50;;;5.79;73.98
9277;BME280;4676;42.678;23.244;2024-03-22T00:33:57;94137.28;;;5.67;75.55
9277;BME280;4676;42.678;23.244;2024-03-22T00:36:23;94144.03;;;5.65;76.08
9277;BME280;4676;42.678;23.244;2024-03-22T00:38:49;94146.75;;;5.54;77.04
9277;BME280;4676;42.678;23.244;2024-03-22T00:41:15;94146.00;;;5.51;78.60
9277;BME280;4676;42.678;23.244;2024-03-22T00:43:42;94147.88;;;5.41;79.35
9277;BME280;4676;42.678;23.244;2024-03-22T00:46:08;94153.47;;;5.52;80.59
9277;BME280;4676;42.678;23.244;2024-03-22T00:48:34;94154.09;;;5.64;76.97
9277;BME280;4676;42.678;23.244;2024-03-22T00:51:02;94148.16;;;5.68;71.26
9277;BME280;4676;42.678;23.244;2024-03-22T00:53:29;94155.63;;;5.72;72.70
9277;BME280;4676;42.678;23.244;2024-03-22T00:55:55;94148.09;;;5.71;70.74
9277;BME280;4676;42.678;23.244;2024-03-22T00:58:24;94143.06;;;5.71;69.03
9277;BME280;4676;42.678;23.244;2024-03-22T01:00:50;94143.13;;;5.68;67.70
9277;BME280;4676;42.678;23.244;2024-03-22T01:03:17;94145.94;;;5.54;72.80
9277;BME280;4676;42.678;23.244;2024-03-22T01:05:42;94147.81;;;5.43;73.72
9277;BME280;4676;42.678;23.244;2024-03-22T01:08:13;94142.88;;;5.38;77.02
9277;BME280;4676;42.678;23.244;2024-03-22T01:10:39;94140.56;;;5.28;78.30
9277;BME280;4676;42.678;23.244;2024-03-22T01:13:06;94153.13;;;5.28;79.06
9277;BME280;4676;42.678;23.244;2024-03-22T01:15:32;94144.03;;;5.24;80.17
9277;BME280;4676;42.678;23.244;2024-03-22T01:17:58;94148.44;;;5.11;80.26
9277;BME280;4676;42.678;23.244;2024-03-22T01:20:24;94151.97;;;5.01;81.09
9277;BME280;4676;42.678;23.244;2024-03-22T01:22:51;94158.72;;;4.99;81.16
9277;BME280;4676;42.678;23.244;2024-03-22T01:25:18;94157.16;;;4.92;82.18
9277;BME280;4676;42.678;23.244;2024-03-22T01:27:44;94147.13;;;4.90;86.47
9277;BME280;4676;42.678;23.244;2024-03-22T01:30:13;94147.31;;;4.80;87.63
9277;BME280;4676;42.678;23.244;2024-03-22T01:32:39;94147.38;;;4.75;88.61
9277;BME280;4676;42.678;23.244;2024-03-22T01:35:05;94145.69;;;4.77;87.84
9277;BME280;4676;42.678;23.244;2024-03-22T01:37:32;94140.72;;;4.74;89.05
9277;BME280;4676;42.678;23.244;2024-03-22T01:39:58;94139.19;;;4.67;90.38
9277;BME280;4676;42.678;23.244;2024-03-22T01:42:26;94146.78;;;4.63;90.34
9277;BME280;4676;42.678;23.244;2024-03-22T01:44:52;94135.03;;;4.65;89.76
9277;BME280;4676;42.678;23.244;2024-03-22T01:47:19;94135.13;;;4.59;91.15
9277;BME280;4676;42.678;23.244;2024-03-22T01:49:44;94137.53;;;4.66;89.65
9277;BME280;4676;42.678;23.244;2024-03-22T01:52:11;94137.56;;;4.63;89.74
9277;BME280;4676;42.678;23.244;2024-03-22T01:54:37;94140.03;;;4.68;88.72
9277;BME280;4676;42.678;23.244;2024-03-22T01:57:04;94126.91;;;4.50;89.57
9277;BME280;4676;42.678;23.244;2024-03-22T01:59:32;94121.25;;;4.39;87.92
9277;BME280;4676;42.678;23.244;2024-03-22T02:02:00;94139.50;;;4.47;88.68
9277;BME280;4676;42.678;23.244;2024-03-22T02:04:25;94134.47;;;4.49;89.29
9277;BME280;4676;42.678;23.244;2024-03-22T02:06:55;94138.66;;;4.48;87.68
9277;BME280;4676;42.678;23.244;2024-03-22T02:09:20;94140.22;;;4.54;87.44
9277;BME280;4676;42.678;23.244;2024-03-22T02:11:47;94136.03;;;4.54;86.66
9277;BME280;4676;42.678;23.244;2024-03-22T02:14:13;94134.16;;;4.67;84.83
9277;BME280;4676;42.678;23.244;2024-03-22T02:16:41;94129.63;;;4.86;72.62
9277;BME280;4676;42.678;23.244;2024-03-22T02:19:07;94137.88;;;4.94;72.89
9277;BME280;4676;42.678;23.244;2024-03-22T02:21:34;94135.50;;;4.86;77.37
9277;BME280;4676;42.678;23.244;2024-03-22T02:24:01;94137.91;;;4.92;81.45
9277;BME280;4676;42.678;23.244;2024-03-22T02:26:28;94136.44;;;4.81;83.54
9277;BME280;4676;42.678;23.244;2024-03-22T02:28:54;94134.81;;;4.78;84.49
9277;BME280;4676;42.678;23.244;2024-03-22T02:31:20;94145.75;;;4.74;84.36
9277;BME280;4676;42.678;23.244;2024-03-22T02:33:46;94150.78;;;4.74;82.33
9277;BME280;4676;42.678;23.244;2024-03-22T02:36:13;94151.56;;;4.76;83.87
9277;BME280;4676;42.678;23.244;2024-03-22T02:38:39;94149.13;;;4.72;85.89
9277;BME280;4676;42.678;23.244;2024-03-22T02:41:07;94150.72;;;4.76;84.34
9277;BME280;4676;42.678;23.244;2024-03-22T02:43:32;94150.84;;;4.71;84.24
9277;BME280;4676;42.678;23.244;2024-03-22T02:45:59;94151.78;;;4.64;83.54
9277;BME280;4676;42.678;23.244;2024-03-22T02:48:25;94149.97;;;4.72;85.24
9277;BME280;4676;42.678;23.244;2024-03-22T02:50:55;94154.19;;;4.70;84.04
9277;BME280;4676;42.678;23.244;2024-03-22T02:53:21;94160.69;;;4.82;81.56
9277;BME280;4676;42.678;23.244;2024-03-22T02:55:48;94156.47;;;4.84;77.03
9277;BME280;4676;42.678;23.244;2024-03-22T02:58:16;94139.38;;;4.55;81.68
9277;BME280;4676;42.678;23.244;2024-03-22T03:00:43;94165.91;;;4.71;82.49
9277;BME280;4676;42.678;23.244;2024-03-22T03:03:09;94160.16;;;4.63;81.98
9277;BME280;4676;42.678;23.244;2024-03-22T03:05:36;94171.97;;;4.57;85.82
9277;BME280;4676;42.678;23.244;2024-03-22T03:08:01;94167.97;;;4.46;88.01
9277;BME280;4676;42.678;23.244;2024-03-22T03:10:29;94173.06;;;4.42;87.72
9277;BME280;4676;42.678;23.244;2024-03-22T03:12:55;94175.63;;;4.37;87.25
9277;BME280;4676;42.678;23.244;2024-03-22T03:15:23;94168.88;;;4.42;88.91
9277;BME280;4676;42.678;23.244;2024-03-22T03:17:49;94173.06;;;4.42;88.31
9277;BME280;4676;42.678;23.244;2024-03-22T03:20:17;94170.66;;;4.36;89.30
9277;BME280;4676;42.678;23.244;2024-03-22T03:22:42;94158.13;;;4.34;90.93
9277;BME280;4676;42.678;23.244;2024-03-22T03:25:09;94174.03;;;4.32;91.42
9277;BME280;4676;42.678;23.244;2024-03-22T03:27:35;94163.25;;;4.27;91.89
9277;BME280;4676;42.678;23.244;2024-03-22T03:30:02;94178.34;;;4.24;93.00
9277;BME280;4676;42.678;23.244;2024-03-22T03:32:29;94183.50;;;4.13;94.04
9277;BME280;4676;42.678;23.244;2024-03-22T03:34:56;94189.41;;;4.09;95.52
9277;BME280;4676;42.678;23.244;2024-03-22T03:37:23;94187.00;;;4.05;97.47
9277;BME280;4676;42.678;23.244;2024-03-22T03:39:48;94185.13;;;4.16;97.21
9277;BME280;4676;42.678;23.244;2024-03-22T03:42:15;94179.63;;;3.94;99.29
9277;BME280;4676;42.678;23.244;2024-03-22T03:44:41;94187.97;;;3.93;100.00
9277;BME280;4676;42.678;23.244;2024-03-22T03:47:08;94188.06;;;3.84;100.00
9277;BME280;4676;42.678;23.244;2024-03-22T03:49:35;94187.16;;;3.91;98.30
9277;BME280;4676;42.678;23.244;2024-03-22T03:52:02;94194.75;;;3.85;99.93
9277;BME280;4676;42.678;23.244;2024-03-22T03:54:28;94195.53;;;3.90;99.66
9277;BME280;4676;42.678;23.244;2024-03-22T03:56:54;94211.56;;;3.78;99.83
9277;BME280;4676;42.678;23.244;2024-03-22T03:59:20;94211.56;;;3.80;100.00
9277;BME280;4676;42.678;23.244;2024-03-22T04:01:47;94218.25;;;3.78;100.00
9277;BME280;4676;42.678;23.244;2024-03-22T04:04:13;94215.69;;;3.81;100.00
9277;BME280;4676;42.678;23.244;2024-03-22T04:06:41;94214.16;;;3.71;100.00
9277;BME280;4676;42.678;23.244;2024-03-22T04:09:06;94223.41;;;3.64;100.00
9277;BME280;4676;42.678;23.244;2024-03-22T04:11:34;94224.31;;;3.60;100.00
9277;BME280;4676;42.678;23.244;2024-03-22T04:13:59;94224.34;;;3.57;100.00
9277;BME280;4676;42.678;23.244;2024-03-22T04:16:26;94225.13;;;3.62;100.00
9277;BME280;4676;42.678;23.244;2024-03-22T04:18:53;94227.56;;;3.67;100.00
9277;BME280;4676;42.678;23.244;2024-03-22T04:21:19;94225.09;;;3.64;100.00
9277;BME280;4676;42.678;23.244;2024-03-22T04:23:46;94225.88;;;3.69;100.00
9277;BME280;4676;42.678;23.244;2024-03-22T04:26:13;94229.97;;;3.76;100.00
9277;BME280;4676;42.678;23.244;2024-03-22T04:28:39;94229.22;;;3.66;100.00
9277;BME280;4676;42.678;23.244;2024-03-22T04:31:07;94224.13;;;3.74;100.00
9277;BME280;4676;42.678;23.244;2024-03-22T04:33:33;94225.94;;;3.64;100.00
9277;BME280;4676;42.678;23.244;2024-03-22T04:36:01;94230.16;;;3.61;100.00
9277;BME280;4676;42.678;23.244;2024-03-22T04:38:27;94226.72;;;3.68;100.00
9277;BME280;4676;42.678;23.244;2024-03-22T04:40:56;94220.91;;;3.63;100.00
9277;BME280;4676;42.678;23.244;2024-03-22T04:43:23;94232.56;;;3.67;100.00
9277;BME280;4676;42.678;23.244;2024-03-22T04:45:50;94235.94;;;3.66;100.00
9277;BME280;4676;42.678;23.244;2024-03-22T04:48:18;94225.94;;;3.64;100.00
9277;BME280;4676;42.678;23.244;2024-03-22T04:50:44;94220.25;;;3.48;100.00
9277;BME280;4676;42.678;23.244;2024-03-22T04:53:13;94244.41;;;3.54;100.00
9277;BME280;4676;42.678;23.244;2024-03-22T04:55:38;94236.19;;;3.44;100.00
9277;BME280;4676;42.678;23.244;2024-03-22T04:58:12;94226.94;;;3.49;100.00
9277;BME280;4676;42.678;23.244;2024-03-22T05:00:38;94248.47;;;3.64;100.00
9277;BME280;4676;42.678;23.244;2024-03-22T05:03:04;94245.06;;;3.73;100.00
9277;BME280;4676;42.678;23.244;2024-03-22T05:05:30;94251.50;;;3.92;100.00
9277;BME280;4676;42.678;23.244;2024-03-22T05:07:57;94251.41;;;3.99;100.00
9277;BME280;4676;42.678;23.244;2024-03-22T05:10:22;94238.13;;;3.91;100.00
9277;BME280;4676;42.678;23.244;2024-03-22T05:12:49;94253.84;;;4.04;100.00
9277;BME280;4676;42.678;23.244;2024-03-22T05:15:16;94258.78;;;4.09;100.00
9277;BME280;4676;42.678;23.244;2024-03-22T05:17:43;94251.94;;;4.21;100.00
9277;BME280;4676;42.678;23.244;2024-03-22T05:20:10;94256.88;;;4.27;100.00
9277;BME280;4676;42.678;23.244;2024-03-22T05:22:36;94261.81;;;4.35;100.00
9277;BME280;4676;42.678;23.244;2024-03-22T05:25:02;94256.78;;;4.35;100.00
9277;BME280;4676;42.678;23.244;2024-03-22T05:27:30;94259.81;;;4.55;100.00
9277;BME280;4676;42.678;23.244;2024-03-22T05:29:56;94262.91;;;4.74;100.00
9277;BME280;4676;42.678;23.244;2024-03-22T05:32:24;94273.50;;;4.91;100.00
9277;BME280;4676;42.678;23.244;2024-03-22T05:34:50;94269.88;;;5.10;100.00
9277;BME280;4676;42.678;23.244;2024-03-22T05:37:17;94272.69;;;5.39;93.98
9277;BME280;4676;42.678;23.244;2024-03-22T05:39:43;94268.38;;;5.47;93.71
9277;BME280;4676;42.678;23.244;2024-03-22T05:42:09;94275.88;;;5.49;93.10
9277;BME280;4676;42.678;23.244;2024-03-22T05:44:35;94274.13;;;5.52;91.75
9277;BME280;4676;42.678;23.244;2024-03-22T05:47:02;94275.06;;;5.48;94.58
9277;BME280;4676;42.678;23.244;2024-03-22T05:49:29;94281.66;;;5.54;92.42
9277;BME280;4676;42.678;23.244;2024-03-22T05:51:56;94284.81;;;5.65;91.82
9277;BME280;4676;42.678;23.244;2024-03-22T05:54:22;94282.25;;;5.67;90.96
9277;BME280;4676;42.678;23.244;2024-03-22T05:56:48;94283.78;;;5.75;91.93
9277;BME280;4676;42.678;23.244;2024-03-22T05:59:14;94228.19;;;5.46;89.73
9277;BME280;4676;42.678;23.244;2024-03-22T06:01:41;94275.03;;;5.96;84.81
9277;BME280;4676;42.678;23.244;2024-03-22T06:04:06;94291.94;;;5.88;76.66
9277;BME280;4676;42.678;23.244;2024-03-22T06:06:35;94287.69;;;5.91;73.93
9277;BME280;4676;42.678;23.244;2024-03-22T06:09:01;94289.97;;;6.03;74.09
9277;BME280;4676;42.678;23.244;2024-03-22T06:11:29;94283.03;;;6.15;70.54
9277;BME280;4676;42.678;23.244;2024-03-22T06:13:55;94291.09;;;6.30;70.20
9277;BME280;4676;42.678;23.244;2024-03-22T06:16:21;94286.97;;;6.28;71.77
9277;BME280;4676;42.678;23.244;2024-03-22T06:18:47;94290.81;;;6.44;73.86
9277;BME280;4676;42.678;23.244;2024-03-22T06:21:14;94295.75;;;6.48;70.29
9277;BME280;4676;42.678;23.244;2024-03-22T06:23:41;94290.78;;;6.45;70.00
9277;BME280;4676;42.678;23.244;2024-03-22T06:26:08;94297.47;;;6.46;71.56
9277;BME280;4676;42.678;23.244;2024-03-22T06:28:33;94293.06;;;6.56;69.92
9277;BME280;4676;42.678;23.244;2024-03-22T06:31:01;94291.09;;;6.70;69.79
9277;BME280;4676;42.678;23.244;2024-03-22T06:33:27;94293.19;;;6.88;67.52
9277;BME280;4676;42.678;23.244;2024-03-22T06:35:54;94295.53;;;6.96;65.71
9277;BME280;4676;42.678;23.244;2024-03-22T06:38:20;94288.34;;;7.16;66.57
9277;BME280;4676;42.678;23.244;2024-03-22T06:40:48;94295.19;;;7.45;67.75
9277;BME280;4676;42.678;23.244;2024-03-22T06:43:13;94300.75;;;7.58;65.48
9277;BME280;4676;42.678;23.244;2024-03-22T06:45:40;94303.63;;;7.76;63.30
9277;BME280;4676;42.678;23.244;2024-03-22T06:48:06;94311.03;;;7.82;61.53
9277;BME280;4676;42.678;23.244;2024-03-22T06:50:32;94303.94;;;7.64;59.92
9277;BME280;4676;42.678;23.244;2024-03-22T06:52:58;94311.97;;;7.46;59.98
9277;BME280;4676;42.678;23.244;2024-03-22T06:55:25;94305.72;;;7.61;61.44
9277;BME280;4676;42.678;23.244;2024-03-22T06:57:52;94320.28;;;7.83;63.52
9277;BME280;4676;42.678;23.244;2024-03-22T07:00:19;94309.38;;;7.81;60.63
9277;BME280;4676;42.678;23.244;2024-03-22T07:02:45;94326.81;;;7.90;59.47
9277;BME280;4676;42.678;23.244;2024-03-22T07:05:11;94320.91;;;7.91;59.01
9277;BME280;4676;42.678;23.244;2024-03-22T07:07:38;94317.56;;;7.89;59.54
9277;BME280;4676;42.678;23.244;2024-03-22T07:10:05;94311.31;;;8.02;62.09
9277;BME280;4676;42.678;23.244;2024-03-22T07:12:31;94326.34;;;8.07;61.04
9277;BME280;4676;42.678;23.244;2024-03-22T07:15:01;94329.22;;;8.26;63.04
9277;BME280;4676;42.678;23.244;2024-03-22T07:17:27;94329.78;;;8.37;61.82
9277;BME280;4676;42.678;23.244;2024-03-22T07:19:54;94321.91;;;8.47;60.62
9277;BME280;4676;42.678;23.244;2024-03-22T07:22:20;94327.66;;;8.52;61.38
9277;BME280;4676;42.678;23.244;2024-03-22T07:24:47;94320.38;;;8.71;60.77
9277;BME280;4676;42.678;23.244;2024-03-22T07:27:13;94327.00;;;8.75;59.48
9277;BME280;4676;42.678;23.244;2024-03-22T07:29:40;94327.91;;;8.73;58.60
9277;BME280;4676;42.678;23.244;2024-03-22T07:32:07;94317.22;;;8.92;58.65
9277;BME280;4676;42.678;23.244;2024-03-22T07:34:34;94328.09;;;8.94;57.16
9277;BME280;4676;42.678;23.244;2024-03-22T07:37:00;94322.44;;;9.14;58.45
9277;BME280;4676;42.678;23.244;2024-03-22T07:39:27;94322.22;;;9.22;57.67
9277;BME280;4676;42.678;23.244;2024-03-22T07:41:52;94324.75;;;9.22;58.44
9277;BME280;4676;42.678;23.244;2024-03-22T07:44:19;94324.91;;;9.16;56.96
9277;BME280;4676;42.678;23.244;2024-03-22T07:46:46;94324.69;;;9.23;57.18
9277;BME280;4676;42.678;23.244;2024-03-22T07:49:14;94325.47;;;9.25;57.20
9277;BME280;4676;42.678;23.244;2024-03-22T07:51:39;94324.09;;;9.41;58.50
9277;BME280;4676;42.678;23.244;2024-03-22T07:54:06;94320.16;;;9.59;58.54
9277;BME280;4676;42.678;23.244;2024-03-22T07:56:32;94329.69;;;9.77;57.26
9277;BME280;4676;42.678;23.244;2024-03-22T07:58:59;94333.47;;;9.64;54.55
9277;BME280;4676;42.678;23.244;2024-03-22T08:01:25;94332.28;;;9.49;55.57
9277;BME280;4676;42.678;23.244;2024-03-22T08:03:52;94332.56;;;9.67;56.98
9277;BME280;4676;42.678;23.244;2024-03-22T08:06:20;94329.97;;;9.68;55.92
9277;BME280;4676;42.678;23.244;2024-03-22T08:08:46;94329.19;;;9.66;55.32
9277;BME280;4676;42.678;23.244;2024-03-22T08:11:12;94316.66;;;9.63;55.18
9277;BME280;4676;42.678;23.244;2024-03-22T08:13:39;94336.22;;;9.83;54.96
9277;BME280;4676;42.678;23.244;2024-03-22T08:16:05;94332.03;;;10.07;55.42
9277;BME280;4676;42.678;23.244;2024-03-22T08:18:32;94332.09;;;10.05;53.50
9277;BME280;4676;42.678;23.244;2024-03-22T08:20:58;94331.03;;;10.12;53.38
9277;BME280;4676;42.678;23.244;2024-03-22T08:23:26;94328.59;;;10.09;53.42
9277;BME280;4676;42.678;23.244;2024-03-22T08:25:52;94317.78;;;10.04;55.06
9277;BME280;4676;42.678;23.244;2024-03-22T08:28:19;94327.91;;;10.04;54.23
9277;BME280;4676;42.678;23.244;2024-03-22T08:30:45;94317.22;;;9.96;53.51
9277;BME280;4676;42.678;23.244;2024-03-22T08:33:11;94328.84;;;10.01;53.04
9277;BME280;4676;42.678;23.244;2024-03-22T08:35:37;94322.34;;;9.94;54.16
9277;BME280;4676;42.678;23.244;2024-03-22T08:38:04;94327.44;;;10.19;52.64
9277;BME280;4676;42.678;23.244;2024-03-22T08:40:36;94319.94;;;10.39;52.95
9277;BME280;4676;42.678;23.244;2024-03-22T08:43:03;94324.84;;;10.67;53.31
9277;BME280;4676;42.678;23.244;2024-03-22T08:45:30;94309.97;;;10.58;50.61
9277;BME280;4676;42.678;23.244;2024-03-22T08:47:56;94314.78;;;10.87;51.18
9277;BME280;4676;42.678;23.244;2024-03-22T08:50:22;94326.06;;;11.02;49.07
9277;BME280;4676;42.678;23.244;2024-03-22T08:52:49;94322.22;;;11.14;50.55
9277;BME280;4676;42.678;23.244;2024-03-22T08:55:15;94323.22;;;11.31;50.51
9277;BME280;4676;42.678;23.244;2024-03-22T08:57:43;94329.88;;;11.56;50.15
9277;BME280;4676;42.678;23.244;2024-03-22T09:00:09;94324.66;;;11.80;49.36
9277;BME280;4676;42.678;23.244;2024-03-22T09:02:36;94324.88;;;11.96;48.83
9277;BME280;4676;42.678;23.244;2024-03-22T09:05:03;94328.66;;;12.26;49.33
9277;BME280;4676;42.678;23.244;2024-03-22T09:07:30;94326.19;;;12.43;47.37
9277;BME280;4676;42.678;23.244;2024-03-22T09:09:56;94331.81;;;12.11;45.78
9277;BME280;4676;42.678;23.244;2024-03-22T09:12:23;94326.81;;;11.89;46.47
9277;BME280;4676;42.678;23.244;2024-03-22T09:14:50;94318.41;;;11.89;46.57
9277;BME280;4676;42.678;23.244;2024-03-22T09:17:17;94309.13;;;11.66;46.63
9277;BME280;4676;42.678;23.244;2024-03-22T09:19:43;94310.19;;;11.82;46.27
9277;BME280;4676;42.678;23.244;2024-03-22T09:22:09;94311.09;;;11.81;46.05
9277;BME280;4676;42.678;23.244;2024-03-22T09:24:36;94306.78;;;11.62;45.86
9277;BME280;4676;42.678;23.244;2024-03-22T09:27:02;94301.50;;;11.46;46.11
9277;BME280;4676;42.678;23.244;2024-03-22T09:29:34;94300.59;;;11.47;46.00
9277;BME280;4676;42.678;23.244;2024-03-22T09:32:01;94301.94;;;11.77;47.42
9277;BME280;4676;42.678;23.244;2024-03-22T09:34:28;94311.09;;;11.81;46.23
9277;BME280;4676;42.678;23.244;2024-03-22T09:36:55;94295.53;;;11.89;45.61
9277;BME280;4676;42.678;23.244;2024-03-22T09:39:21;94289.19;;;12.18;48.56
9277;BME280;4676;42.678;23.244;2024-03-22T09:41:47;94303.94;;;12.30;47.29
9277;BME280;4676;42.678;23.244;2024-03-22T09:44:14;94296.25;;;12.31;45.45
9277;BME280;4676;42.678;23.244;2024-03-22T09:46:43;94298.91;;;12.28;46.59
9277;BME280;4676;42.678;23.244;2024-03-22T09:49:12;94302.53;;;12.23;45.54
9277;BME280;4676;42.678;23.244;2024-03-22T09:51:39;94297.28;;;12.07;46.61
9277;BME280;4676;42.678;23.244;2024-03-22T09:54:05;94296.28;;;11.91;46.32
9277;BME280;4676;42.678;23.244;2024-03-22T09:56:32;94292.78;;;11.93;47.32
9277;BME280;4676;42.678;23.244;2024-03-22T09:58:58;94286.81;;;11.94;46.19
9277;BME280;4676;42.678;23.244;2024-03-22T10:01:24;94287.41;;;11.81;45.38
9277;BME280;4676;42.678;23.244;2024-03-22T10:03:52;94287.19;;;12.06;45.15
9277;BME280;4676;42.678;23.244;2024-03-22T10:06:19;94278.28;;;12.16;45.53
9277;BME280;4676;42.678;23.244;2024-03-22T10:08:46;94276.31;;;12.22;45.25
9277;BME280;4676;42.678;23.244;2024-03-22T10:11:12;94276.84;;;12.29;48.11
9277;BME280;4676;42.678;23.244;2024-03-22T10:13:38;94273.66;;;12.44;46.22
9277;BME280;4676;42.678;23.244;2024-03-22T10:16:05;94266.63;;;12.49;45.09
9277;BME280;4676;42.678;23.244;2024-03-22T10:18:33;94271.31;;;12.39;44.92
9277;BME280;4676;42.678;23.244;2024-03-22T10:20:59;94276.06;;;12.66;46.92
9277;BME280;4676;42.678;23.244;2024-03-22T10:23:29;94275.97;;;12.86;46.17
9277;BME280;4676;42.678;23.244;2024-03-22T10:25:56;94271.09;;;12.81;45.54
9277;BME280;4676;42.678;23.244;2024-03-22T10:28:23;94266.28;;;12.94;44.33
9277;BME280;4676;42.678;23.244;2024-03-22T10:30:50;94250.44;;;13.06;45.86
9277;BME280;4676;42.678;23.244;2024-03-22T10:33:18;94256.72;;;12.99;44.59
9277;BME280;4676;42.678;23.244;2024-03-22T10:35:45;94263.59;;;12.60;43.31
9277;BME280;4676;42.678;23.244;2024-03-22T10:38:12;94265.16;;;12.45;44.22
9277;BME280;4676;42.678;23.244;2024-03-22T10:40:40;94254.34;;;12.59;42.94
9277;BME280;4676;42.678;23.244;2024-03-22T10:43:10;94249.28;;;12.59;44.07
9277;BME280;4676;42.678;23.244;2024-03-22T10:45:37;94236.13;;;12.49;44.75
9277;BME280;4676;42.678;23.244;2024-03-22T10:48:08;94241.41;;;12.63;44.17
9277;BME280;4676;42.678;23.244;2024-03-22T10:50:35;94243.06;;;12.83;44.96
9277;BME280;4676;42.678;23.244;2024-03-22T10:53:07;94234.22;;;13.09;44.31
9277;BME280;4676;42.678;23.244;2024-03-22T10:55:36;94233.44;;;13.25;43.33
9277;BME280;4676;42.678;23.244;2024-03-22T10:58:05;94235.16;;;13.25;42.07
9277;BME280;4676;42.678;23.244;2024-03-22T11:00:32;94240.69;;;13.16;41.96
9277;BME280;4676;42.678;23.244;2024-03-22T11:03:02;94236.16;;;13.03;41.86
9277;BME280;4676;42.678;23.244;2024-03-22T11:05:28;94223.16;;;13.27;42.81
9277;BME280;4676;42.678;23.244;2024-03-22T11:07:59;94228.28;;;13.44;43.25
9277;BME280;4676;42.678;23.244;2024-03-22T11:10:28;94222.13;;;13.31;43.78
9277;BME280;4676;42.678;23.244;2024-03-22T11:12:55;94224.25;;;13.04;41.86
9277;BME280;4676;42.678;23.244;2024-03-22T11:15:22;94211.69;;;13.01;43.82
9277;BME280;4676;42.678;23.244;2024-03-22T11:17:49;94210.38;;;13.28;41.83
9277;BME280;4676;42.678;23.244;2024-03-22T11:20:15;94205.59;;;13.57;42.16
9277;BME280;4676;42.678;23.244;2024-03-22T11:22:42;94210.19;;;13.83;42.89
9277;BME280;4676;42.678;23.244;2024-03-22T11:25:08;94212.78;;;13.98;40.99
9277;BME280;4676;42.678;23.244;2024-03-22T11:27:35;94215.94;;;13.86;41.24
9277;BME280;4676;42.678;23.244;2024-03-22T11:30:01;94212.72;;;13.50;40.66
9277;BME280;4676;42.678;23.244;2024-03-22T11:32:30;94211.72;;;13.35;41.78
9277;BME280;4676;42.678;23.244;2024-03-22T11:34:56;94202.75;;;13.45;43.12
9277;BME280;4676;42.678;23.244;2024-03-22T11:37:23;94204.03;;;13.54;44.32
9277;BME280;4676;42.678;23.244;2024-03-22T11:39:48;94195.25;;;13.60;43.35
9277;BME280;4676;42.678;23.244;2024-03-22T11:42:16;94206.63;;;13.35;41.73
9277;BME280;4676;42.678;23.244;2024-03-22T11:44:43;94209.50;;;13.29;40.81
9277;BME280;4676;42.678;23.244;2024-03-22T11:47:10;94202.22;;;13.39;40.98
9277;BME280;4676;42.678;23.244;2024-03-22T11:49:37;94205.44;;;13.42;41.13
9277;BME280;4676;42.678;23.244;2024-03-22T11:52:04;94200.19;;;13.45;41.39
9277;BME280;4676;42.678;23.244;2024-03-22T11:54:33;94171.50;;;13.59;43.18
9277;BME280;4676;42.678;23.244;2024-03-22T11:57:00;94182.47;;;14.10;43.54
9277;BME280;4676;42.678;23.244;2024-03-22T11:59:25;94184.91;;;14.44;40.96
9277;BME280;4676;42.678;23.244;2024-03-22T12:01:52;94172.50;;;14.38;40.06
9277;BME280;4676;42.678;23.244;2024-03-22T12:04:19;94184.66;;;14.64;44.83
9277;BME280;4676;42.678;23.244;2024-03-22T12:06:47;94185.66;;;14.77;41.14
9277;BME280;4676;42.678;23.244;2024-03-22T12:09:13;94181.97;;;14.03;39.24
9277;BME280;4676;42.678;23.244;2024-03-22T12:11:40;94172.91;;;13.97;40.49
9277;BME280;4676;42.678;23.244;2024-03-22T12:14:06;94169.28;;;13.86;39.99
9277;BME280;4676;42.678;23.244;2024-03-22T12:16:33;94156.00;;;13.96;39.57
9277;BME280;4676;42.678;23.244;2024-03-22T12:21:26;94147.66;;;14.57;40.89
9277;BME280;4676;42.678;23.244;2024-03-22T12:23:54;94171.50;;;14.72;38.55
9277;BME280;4676;42.678;23.244;2024-03-22T12:26:19;94170.69;;;14.56;38.74
9277;BME280;4676;42.678;23.244;2024-03-22T12:28:46;94147.13;;;14.19;38.73
9277;BME280;4676;42.678;23.244;2024-03-22T12:31:12;94148.66;;;14.39;41.20
9277;BME280;4676;42.678;23.244;2024-03-22T12:33:39;94150.59;;;14.49;38.46
9277;BME280;4676;42.678;23.244;2024-03-22T12:36:04;94151.56;;;14.00;38.37
9277;BME280;4676;42.678;23.244;2024-03-22T12:38:31;94140.44;;;13.85;38.62
9277;BME280;4676;42.678;23.244;2024-03-22T12:40:58;94142.50;;;13.94;38.44
9277;BME280;4676;42.678;23.244;2024-03-22T12:43:25;94139.16;;;14.10;37.78
9277;BME280;4676;42.678;23.244;2024-03-22T12:45:51;94135.84;;;14.08;37.66
9277;BME280;4676;42.678;23.244;2024-03-22T12:48:17;94139.78;;;13.97;37.79
9277;BME280;4676;42.678;23.244;2024-03-22T12:50:44;94140.44;;;13.85;37.22
9277;BME280;4676;42.678;23.244;2024-03-22T12:53:11;94114.81;;;13.88;38.98
9277;BME280;4676;42.678;23.244;2024-03-22T12:55:37;94135.69;;;14.26;39.72
9277;BME280;4676;42.678;23.244;2024-03-22T12:58:05;94128.25;;;14.55;38.80
9277;BME280;4676;42.678;23.244;2024-03-22T13:00:31;94135.84;;;14.86;39.06
9277;BME280;4676;42.678;23.244;2024-03-22T13:02:58;94126.56;;;15.15;38.74
9277;BME280;4676;42.678;23.244;2024-03-22T13:05:25;94129.28;;;15.12;37.88
9277;BME280;4676;42.678;23.244;2024-03-22T13:07:52;94124.56;;;15.20;37.50
9277;BME280;4676;42.678;23.244;2024-03-22T13:10:18;94116.00;;;15.35;39.04
9277;BME280;4676;42.678;23.244;2024-03-22T13:12:45;94112.69;;;15.48;38.49
9277;BME280;4676;42.678;23.244;2024-03-22T13:15:12;94119.72;;;15.73;37.61
9277;BME280;4676;42.678;23.244;2024-03-22T13:17:40;94114.78;;;15.56;35.90